sensor_id;sensor_type;location;lat;lon;timestamp;pressure;altitude;pressure_sealevel;temperature;humidity
5484;BME280;2764;48.794;8.326;2022-07-22T00:00:04;100247.69;;;19.59;95.53
5484;BME280;2764;48.794;8.326;2022-07-22T00:01:07;100248.88;;;19.55;95.40
5484;BME280;2764;48.794;8.326;2022-07-22T00:02:08;100242.13;;;19.51;95.61
5484;BME280;2764;48.794;8.326;2022-07-22T00:03:10;100246.78;;;19.48;96.17
5484;BME280;2764;48.794;8.326;2022-07-22T00:04:12;100254.34;;;19.41;97.16
5484;BME280;2764;48.794;8.326;2022-07-22T00:05:13;100246.81;;;19.35;96.92
5484;BME280;2764;48.794;8.326;2022-07-22T00:06:15;100255.16;;;19.29;97.33
5484;BME280;2764;48.794;8.326;2022-07-22T00:07:17;100256.34;;;19.25;98.13
5484;BME280;2764;48.794;8.326;2022-07-22T00:08:18;100253.16;;;19.20;98.19
5484;BME280;2764;48.794;8.326;2022-07-22T00:09:20;100256.28;;;19.14;97.84
5484;BME280;2764;48.794;8.326;2022-07-22T00:10:22;100245.25;;;19.08;99.26
5484;BME280;2764;48.794;8.326;2022-07-22T00:11:23;100253.09;;;19.09;100.00
5484;BME280;2764;48.794;8.326;2022-07-22T00:12:25;100248.34;;;19.02;99.91
5484;BME280;2764;48.794;8.326;2022-07-22T00:13:27;100256.31;;;19.02;99.91
5484;BME280;2764;48.794;8.326;2022-07-22T00:14:28;100257.13;;;19.02;100.00
5484;BME280;2764;48.794;8.326;2022-07-22T00:15:30;100259.03;;;19.00;100.00
5484;BME280;2764;48.794;8.326;2022-07-22T00:16:32;100260.00;;;18.99;100.00
5484;BME280;2764;48.794;8.326;2022-07-22T00:17:34;100257.56;;;18.96;100.00
5484;BME280;2764;48.794;8.326;2022-07-22T00:18:37;100255.22;;;18.91;100.00
5484;BME280;2764;48.794;8.326;2022-07-22T00:19:39;100254.38;;;18.91;100.00
5484;BME280;2764;48.794;8.326;2022-07-22T00:20:40;100246.63;;;18.88;100.00
5484;BME280;2764;48.794;8.326;2022-07-22T00:21:43;100254.81;;;18.85;100.00
5484;BME280;2764;48.794;8.326;2022-07-22T00:22:45;100256.94;;;18.80;100.00
5484;BME280;2764;48.794;8.326;2022-07-22T00:23:46;100253.00;;;18.73;100.00
5484;BME280;2764;48.794;8.326;2022-07-22T00:24:48;100254.06;;;18.70;100.00
5484;BME280;2764;48.794;8.326;2022-07-22T00:25:50;100243.91;;;18.64;100.00
5484;BME280;2764;48.794;8.326;2022-07-22T00:26:51;100253.63;;;18.64;100.00
5484;BME280;2764;48.794;8.326;2022-07-22T00:27:53;100254.81;;;18.60;100.00
5484;BME280;2764;48.794;8.326;2022-07-22T00:28:54;100247.19;;;18.55;100.00
5484;BME280;2764;48.794;8.326;2022-07-22T00:29:57;100241.75;;;18.57;100.00
5484;BME280;2764;48.794;8.326;2022-07-22T00:30:58;100245.25;;;18.57;100.00
5484;BME280;2764;48.794;8.326;2022-07-22T00:32:00;100247.19;;;18.55;100.00
5484;BME280;2764;48.794;8.326;2022-07-22T00:33:03;100247.25;;;18.54;100.00
5484;BME280;2764;48.794;8.326;2022-07-22T00:34:05;100241.41;;;18.49;100.00
5484;BME280;2764;48.794;8.326;2022-07-22T00:35:07;100240.78;;;18.45;100.00
5484;BME280;2764;48.794;8.326;2022-07-22T00:36:09;100237.56;;;18.40;100.00
5484;BME280;2764;48.794;8.326;2022-07-22T00:37:10;100239.59;;;18.37;100.00
5484;BME280;2764;48.794;8.326;2022-07-22T00:38:12;100241.50;;;18.35;100.00
5484;BME280;2764;48.794;8.326;2022-07-22T00:39:14;100240.97;;;18.30;100.00
5484;BME280;2764;48.794;8.326;2022-07-22T00:40:16;100235.00;;;18.26;100.00
5484;BME280;2764;48.794;8.326;2022-07-22T00:41:18;100236.06;;;18.23;100.00
5484;BME280;2764;48.794;8.326;2022-07-22T00:42:20;100241.56;;;18.20;100.00
5484;BME280;2764;48.794;8.326;2022-07-22T00:43:23;100238.19;;;18.18;100.00
5484;BME280;2764;48.794;8.326;2022-07-22T00:44:25;100233.94;;;18.16;100.00
5484;BME280;2764;48.794;8.326;2022-07-22T00:45:28;100236.66;;;18.14;100.00
5484;BME280;2764;48.794;8.326;2022-07-22T00:46:31;100230.56;;;18.14;100.00
5484;BME280;2764;48.794;8.326;2022-07-22T00:47:33;100230.75;;;18.11;100.00
5484;BME280;2764;48.794;8.326;2022-07-22T00:48:35;100230.94;;;18.08;100.00
5484;BME280;2764;48.794;8.326;2022-07-22T00:49:37;100230.31;;;18.04;100.00
5484;BME280;2764;48.794;8.326;2022-07-22T00:50:38;100232.22;;;18.02;100.00
5484;BME280;2764;48.794;8.326;2022-07-22T00:51:40;100233.25;;;18.00;100.00
5484;BME280;2764;48.794;8.326;2022-07-22T00:52:43;100232.41;;;17.99;100.00
5484;BME280;2764;48.794;8.326;2022-07-22T00:53:46;100235.25;;;17.96;100.00
5484;BME280;2764;48.794;8.326;2022-07-22T00:54:49;100230.06;;;17.95;100.00
5484;BME280;2764;48.794;8.326;2022-07-22T00:55:51;100231.97;;;17.93;100.00
5484;BME280;2764;48.794;8.326;2022-07-22T00:56:52;100234.50;;;17.94;100.00
5484;BME280;2764;48.794;8.326;2022-07-22T00:57:54;100232.16;;;17.90;100.00
5484;BME280;2764;48.794;8.326;2022-07-22T00:58:59;100228.78;;;17.88;100.00
5484;BME280;2764;48.794;8.326;2022-07-22T01:00:04;100230.56;;;17.87;100.00
5484;BME280;2764;48.794;8.326;2022-07-22T01:01:07;100227.16;;;17.85;100.00
5484;BME280;2764;48.794;8.326;2022-07-22T01:02:09;100223.78;;;17.83;100.00
5484;BME280;2764;48.794;8.326;2022-07-22T01:03:11;100230.22;;;17.79;100.00
5484;BME280;2764;48.794;8.326;2022-07-22T01:04:12;100231.34;;;17.75;100.00
5484;BME280;2764;48.794;8.326;2022-07-22T01:05:15;100233.25;;;17.73;100.00
5484;BME280;2764;48.794;8.326;2022-07-22T01:06:17;100230.72;;;17.72;100.00
5484;BME280;2764;48.794;8.326;2022-07-22T01:07:19;100249.25;;;17.72;100.00
5484;BME280;2764;48.794;8.326;2022-07-22T01:08:21;100230.84;;;17.70;100.00
5484;BME280;2764;48.794;8.326;2022-07-22T01:09:22;100226.59;;;17.68;100.00
5484;BME280;2764;48.794;8.326;2022-07-22T01:10:24;100231.31;;;17.63;100.00
5484;BME280;2764;48.794;8.326;2022-07-22T01:11:26;100224.63;;;17.57;100.00
5484;BME280;2764;48.794;8.326;2022-07-22T01:12:32;100227.94;;;17.61;100.00
5484;BME280;2764;48.794;8.326;2022-07-22T01:13:34;100226.34;;;17.58;100.00
5484;BME280;2764;48.794;8.326;2022-07-22T01:14:36;100228.00;;;17.59;100.00
5484;BME280;2764;48.794;8.326;2022-07-22T01:15:38;100221.16;;;17.57;100.00
5484;BME280;2764;48.794;8.326;2022-07-22T01:16:40;100227.72;;;17.64;100.00
5484;BME280;2764;48.794;8.326;2022-07-22T01:17:49;100231.44;;;17.61;100.00
5484;BME280;2764;48.794;8.326;2022-07-22T01:18:51;100229.72;;;17.60;100.00
5484;BME280;2764;48.794;8.326;2022-07-22T01:19:53;100224.44;;;17.60;100.00
5484;BME280;2764;48.794;8.326;2022-07-22T01:20:55;100218.59;;;17.55;100.00
5484;BME280;2764;48.794;8.326;2022-07-22T01:21:56;100223.50;;;17.61;100.00
5484;BME280;2764;48.794;8.326;2022-07-22T01:22:58;100223.50;;;17.61;100.00
5484;BME280;2764;48.794;8.326;2022-07-22T01:24:00;100233.28;;;17.59;100.00
5484;BME280;2764;48.794;8.326;2022-07-22T01:25:02;100224.44;;;17.60;100.00
5484;BME280;2764;48.794;8.326;2022-07-22T01:26:04;100216.03;;;17.53;100.00
5484;BME280;2764;48.794;8.326;2022-07-22T01:27:06;100224.44;;;17.60;100.00
5484;BME280;2764;48.794;8.326;2022-07-22T01:28:08;100224.63;;;17.57;100.00
5484;BME280;2764;48.794;8.326;2022-07-22T01:29:09;100227.25;;;17.57;100.00
5484;BME280;2764;48.794;8.326;2022-07-22T01:30:12;100230.03;;;17.56;100.00
5484;BME280;2764;48.794;8.326;2022-07-22T01:31:13;100231.72;;;17.57;100.00
5484;BME280;2764;48.794;8.326;2022-07-22T01:32:15;100229.91;;;17.57;100.00
5484;BME280;2764;48.794;8.326;2022-07-22T01:33:18;100229.16;;;17.55;100.00
5484;BME280;2764;48.794;8.326;2022-07-22T01:34:20;100227.56;;;17.52;100.00
5484;BME280;2764;48.794;8.326;2022-07-22T01:35:22;100234.63;;;17.52;100.00
5484;BME280;2764;48.794;8.326;2022-07-22T01:36:24;100225.03;;;17.51;100.00
5484;BME280;2764;48.794;8.326;2022-07-22T01:37:26;100240.91;;;17.51;100.00
5484;BME280;2764;48.794;8.326;2022-07-22T01:38:27;100231.50;;;17.45;100.00
5484;BME280;2764;48.794;8.326;2022-07-22T01:39:29;100231.81;;;17.41;100.00
5484;BME280;2764;48.794;8.326;2022-07-22T01:40:30;100222.25;;;17.38;100.00
5484;BME280;2764;48.794;8.326;2022-07-22T01:41:32;100229.38;;;17.38;100.00
5484;BME280;2764;48.794;8.326;2022-07-22T01:42:34;100225.94;;;17.36;100.00
5484;BME280;2764;48.794;8.326;2022-07-22T01:43:36;100222.38;;;17.37;100.00
5484;BME280;2764;48.794;8.326;2022-07-22T01:46:06;100230.50;;;17.34;100.00
5484;BME280;2764;48.794;8.326;2022-07-22T01:47:08;100230.72;;;17.31;100.00
5484;BME280;2764;48.794;8.326;2022-07-22T01:48:10;100228.25;;;17.28;100.00
5484;BME280;2764;48.794;8.326;2022-07-22T01:49:12;100223.91;;;17.27;100.00
5484;BME280;2764;48.794;8.326;2022-07-22T01:50:13;100225.78;;;17.25;100.00
5484;BME280;2764;48.794;8.326;2022-07-22T01:51:15;100220.78;;;17.20;100.00
5484;BME280;2764;48.794;8.326;2022-07-22T01:52:17;100230.63;;;17.18;100.00
5484;BME280;2764;48.794;8.326;2022-07-22T01:53:18;100228.84;;;17.19;100.00
5484;BME280;2764;48.794;8.326;2022-07-22T01:54:20;100229.75;;;17.18;100.00
5484;BME280;2764;48.794;8.326;2022-07-22T01:55:23;100227.34;;;17.15;100.00
5484;BME280;2764;48.794;8.326;2022-07-22T01:56:24;100223.16;;;17.11;100.00
5484;BME280;2764;48.794;8.326;2022-07-22T01:57:26;100222.53;;;17.07;100.00
5484;BME280;2764;48.794;8.326;2022-07-22T01:58:28;100217.53;;;17.03;100.00
5484;BME280;2764;48.794;8.326;2022-07-22T01:59:30;100218.28;;;17.05;100.00
5484;BME280;2764;48.794;8.326;2022-07-22T02:00:32;100225.44;;;17.03;100.00
5484;BME280;2764;48.794;8.326;2022-07-22T02:01:34;100210.91;;;16.96;100.00
5484;BME280;2764;48.794;8.326;2022-07-22T02:02:37;100227.34;;;17.01;100.00
5484;BME280;2764;48.794;8.326;2022-07-22T02:03:38;100224.13;;;16.96;100.00
5484;BME280;2764;48.794;8.326;2022-07-22T02:04:40;100225.06;;;16.95;100.00
5484;BME280;2764;48.794;8.326;2022-07-22T02:05:42;100194.72;;;16.73;100.00
5484;BME280;2764;48.794;8.326;2022-07-22T02:06:44;100226.13;;;16.92;100.00
5484;BME280;2764;48.794;8.326;2022-07-22T02:07:45;100223.56;;;16.91;100.00
5484;BME280;2764;48.794;8.326;2022-07-22T02:08:47;100229.97;;;16.87;100.00
5484;BME280;2764;48.794;8.326;2022-07-22T02:09:48;100225.56;;;16.87;100.00
5484;BME280;2764;48.794;8.326;2022-07-22T02:10:50;100229.22;;;16.84;100.00
5484;BME280;2764;48.794;8.326;2022-07-22T02:11:52;100234.41;;;16.86;100.00
5484;BME280;2764;48.794;8.326;2022-07-22T02:12:53;100237.22;;;16.83;100.00
5484;BME280;2764;48.794;8.326;2022-07-22T02:13:55;100224.97;;;16.82;100.00
5484;BME280;2764;48.794;8.326;2022-07-22T02:14:57;100224.03;;;16.83;100.00
5484;BME280;2764;48.794;8.326;2022-07-22T02:15:58;100206.00;;;16.61;100.00
5484;BME280;2764;48.794;8.326;2022-07-22T02:17:00;100228.66;;;16.79;100.00
5484;BME280;2764;48.794;8.326;2022-07-22T02:18:16;100229.59;;;16.78;100.00
5484;BME280;2764;48.794;8.326;2022-07-22T02:19:18;100221.78;;;16.77;100.00
5484;BME280;2764;48.794;8.326;2022-07-22T02:20:20;100223.56;;;16.76;100.00
5484;BME280;2764;48.794;8.326;2022-07-22T02:21:22;100220.16;;;16.74;100.00
5484;BME280;2764;48.794;8.326;2022-07-22T02:22:24;100222.81;;;16.74;100.00
5484;BME280;2764;48.794;8.326;2022-07-22T02:23:26;100221.88;;;16.75;100.00
5484;BME280;2764;48.794;8.326;2022-07-22T02:24:28;100222.06;;;16.72;100.00
5484;BME280;2764;48.794;8.326;2022-07-22T02:25:29;100219.31;;;16.74;100.00
5484;BME280;2764;48.794;8.326;2022-07-22T02:26:31;100218.63;;;16.56;100.00
5484;BME280;2764;48.794;8.326;2022-07-22T02:27:33;100219.41;;;16.72;100.00
5484;BME280;2764;48.794;8.326;2022-07-22T02:28:34;100220.34;;;16.71;100.00
5484;BME280;2764;48.794;8.326;2022-07-22T02:29:36;100223.84;;;16.72;100.00
5484;BME280;2764;48.794;8.326;2022-07-22T02:30:38;100216.94;;;16.69;100.00
5484;BME280;2764;48.794;8.326;2022-07-22T02:31:40;100220.34;;;16.71;100.00
5484;BME280;2764;48.794;8.326;2022-07-22T02:32:42;100218.75;;;16.69;100.00
5484;BME280;2764;48.794;8.326;2022-07-22T02:33:43;100224.13;;;16.67;100.00
5484;BME280;2764;48.794;8.326;2022-07-22T02:34:45;100221.47;;;16.67;100.00
5484;BME280;2764;48.794;8.326;2022-07-22T02:35:47;100211.13;;;16.64;100.00
5484;BME280;2764;48.794;8.326;2022-07-22T02:36:49;100222.50;;;16.65;100.00
5484;BME280;2764;48.794;8.326;2022-07-22T02:37:51;100217.34;;;16.63;100.00
5484;BME280;2764;48.794;8.326;2022-07-22T02:38:53;100211.19;;;16.63;100.00
5484;BME280;2764;48.794;8.326;2022-07-22T02:39:55;100210.53;;;16.59;100.00
5484;BME280;2764;48.794;8.326;2022-07-22T02:40:57;100209.78;;;16.57;100.00
5484;BME280;2764;48.794;8.326;2022-07-22T02:41:58;100223.06;;;16.56;100.00
5484;BME280;2764;48.794;8.326;2022-07-22T02:43:00;100214.41;;;16.54;100.00
5484;BME280;2764;48.794;8.326;2022-07-22T02:44:02;100212.72;;;16.53;100.00
5484;BME280;2764;48.794;8.326;2022-07-22T02:45:04;100214.41;;;16.54;100.00
5484;BME280;2764;48.794;8.326;2022-07-22T02:46:06;100231.25;;;16.51;100.00
5484;BME280;2764;48.794;8.326;2022-07-22T02:47:08;100188.41;;;16.32;100.00
5484;BME280;2764;48.794;8.326;2022-07-22T02:48:09;100215.50;;;16.50;100.00
5484;BME280;2764;48.794;8.326;2022-07-22T02:49:11;100222.66;;;16.48;100.00
5484;BME280;2764;48.794;8.326;2022-07-22T02:50:13;100216.53;;;16.47;100.00
5484;BME280;2764;48.794;8.326;2022-07-22T02:51:15;100219.06;;;16.49;100.00
5484;BME280;2764;48.794;8.326;2022-07-22T02:52:16;100215.50;;;16.50;100.00
5484;BME280;2764;48.794;8.326;2022-07-22T02:53:18;100220.03;;;16.48;100.00
5484;BME280;2764;48.794;8.326;2022-07-22T02:54:20;100217.44;;;16.46;100.00
5484;BME280;2764;48.794;8.326;2022-07-22T02:55:21;100219.16;;;16.47;100.00
5484;BME280;2764;48.794;8.326;2022-07-22T02:56:23;100222.72;;;16.46;100.00
5484;BME280;2764;48.794;8.326;2022-07-22T02:57:25;100226.22;;;16.47;100.00
5484;BME280;2764;48.794;8.326;2022-07-22T02:58:26;100220.31;;;16.43;100.00
5484;BME280;2764;48.794;8.326;2022-07-22T02:59:28;100223.13;;;16.40;100.00
5484;BME280;2764;48.794;8.326;2022-07-22T03:00:30;100231.13;;;16.39;100.00
5484;BME280;2764;48.794;8.326;2022-07-22T03:01:31;100221.50;;;16.38;100.00
5484;BME280;2764;48.794;8.326;2022-07-22T03:02:33;100225.91;;;16.37;100.00
5484;BME280;2764;48.794;8.326;2022-07-22T03:03:35;100218.00;;;16.37;100.00
5484;BME280;2764;48.794;8.326;2022-07-22T03:04:37;100218.88;;;16.38;100.00
5484;BME280;2764;48.794;8.326;2022-07-22T03:05:39;100214.44;;;16.38;100.00
5484;BME280;2764;48.794;8.326;2022-07-22T03:06:43;100220.66;;;16.37;100.00
5484;BME280;2764;48.794;8.326;2022-07-22T03:07:44;100220.84;;;16.34;100.00
5484;BME280;2764;48.794;8.326;2022-07-22T03:08:47;100226.03;;;16.36;100.00
5484;BME280;2764;48.794;8.326;2022-07-22T03:09:48;100216.41;;;16.35;100.00
5484;BME280;2764;48.794;8.326;2022-07-22T03:10:50;100222.53;;;16.35;100.00
5484;BME280;2764;48.794;8.326;2022-07-22T03:11:51;100224.41;;;16.33;100.00
5484;BME280;2764;48.794;8.326;2022-07-22T03:12:53;100220.09;;;16.32;100.00
5484;BME280;2764;48.794;8.326;2022-07-22T03:13:55;100220.09;;;16.32;100.00
5484;BME280;2764;48.794;8.326;2022-07-22T03:14:56;100225.53;;;16.29;100.00
5484;BME280;2764;48.794;8.326;2022-07-22T03:15:58;100221.41;;;16.25;100.00
5484;BME280;2764;48.794;8.326;2022-07-22T03:17:00;100226.75;;;16.24;100.00
5484;BME280;2764;48.794;8.326;2022-07-22T03:18:02;100210.44;;;16.17;100.00
5484;BME280;2764;48.794;8.326;2022-07-22T03:19:04;100238.31;;;16.21;100.00
5484;BME280;2764;48.794;8.326;2022-07-22T03:20:07;100213.22;;;16.14;100.00
5484;BME280;2764;48.794;8.326;2022-07-22T03:21:09;100227.97;;;16.18;100.00
5484;BME280;2764;48.794;8.326;2022-07-22T03:22:11;100221.09;;;16.15;100.00
5484;BME280;2764;48.794;8.326;2022-07-22T03:23:12;100219.38;;;16.14;100.00
5484;BME280;2764;48.794;8.326;2022-07-22T03:24:14;100227.13;;;16.17;100.00
5484;BME280;2764;48.794;8.326;2022-07-22T03:25:16;100208.78;;;16.00;100.00
5484;BME280;2764;48.794;8.326;2022-07-22T03:26:17;100222.69;;;16.18;100.00
5484;BME280;2764;48.794;8.326;2022-07-22T03:27:19;100224.59;;;16.16;100.00
5484;BME280;2764;48.794;8.326;2022-07-22T03:28:21;100227.38;;;16.13;100.00
5484;BME280;2764;48.794;8.326;2022-07-22T03:29:22;100227.13;;;16.17;100.00
5484;BME280;2764;48.794;8.326;2022-07-22T03:30:26;100228.16;;;16.15;100.00
5484;BME280;2764;48.794;8.326;2022-07-22T03:31:28;100227.13;;;16.17;100.00
5484;BME280;2764;48.794;8.326;2022-07-22T03:32:29;100228.78;;;16.18;100.00
5484;BME280;2764;48.794;8.326;2022-07-22T03:33:31;100225.41;;;16.16;100.00
5484;BME280;2764;48.794;8.326;2022-07-22T03:34:33;100219.38;;;16.14;100.00
5484;BME280;2764;48.794;8.326;2022-07-22T03:35:34;100226.38;;;16.15;100.00
5484;BME280;2764;48.794;8.326;2022-07-22T03:36:41;100220.97;;;16.17;100.00
5484;BME280;2764;48.794;8.326;2022-07-22T03:38:07;100217.50;;;16.16;100.00
5484;BME280;2764;48.794;8.326;2022-07-22T03:39:09;100221.34;;;16.11;100.00
5484;BME280;2764;48.794;8.326;2022-07-22T03:40:11;100222.97;;;16.13;100.00
5484;BME280;2764;48.794;8.326;2022-07-22T03:41:13;100224.75;;;16.13;100.00
5484;BME280;2764;48.794;8.326;2022-07-22T03:42:15;100224.75;;;16.13;100.00
5484;BME280;2764;48.794;8.326;2022-07-22T03:43:16;100209.09;;;16.10;100.00
5484;BME280;2764;48.794;8.326;2022-07-22T03:44:18;100221.09;;;16.15;100.00
5484;BME280;2764;48.794;8.326;2022-07-22T03:45:20;100215.69;;;16.17;100.00
5484;BME280;2764;48.794;8.326;2022-07-22T03:46:21;100213.22;;;16.14;100.00
5484;BME280;2764;48.794;8.326;2022-07-22T03:47:23;100219.47;;;16.13;100.00
5484;BME280;2764;48.794;8.326;2022-07-22T03:48:25;100217.75;;;16.12;100.00
5484;BME280;2764;48.794;8.326;2022-07-22T03:49:27;100219.56;;;16.11;100.00
5484;BME280;2764;48.794;8.326;2022-07-22T03:50:30;100216.06;;;16.11;100.00
5484;BME280;2764;48.794;8.326;2022-07-22T03:51:32;100214.53;;;16.07;100.00
5484;BME280;2764;48.794;8.326;2022-07-22T03:52:35;100215.50;;;16.06;100.00
5484;BME280;2764;48.794;8.326;2022-07-22T03:53:37;100215.50;;;16.06;100.00
5484;BME280;2764;48.794;8.326;2022-07-22T03:54:40;100208.31;;;16.08;100.00
5484;BME280;2764;48.794;8.326;2022-07-22T03:55:41;100205.03;;;16.04;100.00
5484;BME280;2764;48.794;8.326;2022-07-22T03:56:43;100209.25;;;16.07;100.00
5484;BME280;2764;48.794;8.326;2022-07-22T03:57:44;100213.50;;;16.09;100.00
5484;BME280;2764;48.794;8.326;2022-07-22T03:58:46;100223.88;;;16.12;100.00
5484;BME280;2764;48.794;8.326;2022-07-22T03:59:48;100210.81;;;16.11;100.00
5484;BME280;2764;48.794;8.326;2022-07-22T04:00:49;100202.88;;;16.11;100.00
5484;BME280;2764;48.794;8.326;2022-07-22T04:01:51;100208.22;;;16.09;100.00
5484;BME280;2764;48.794;8.326;2022-07-22T04:02:53;100203.81;;;16.10;100.00
5484;BME280;2764;48.794;8.326;2022-07-22T04:03:55;100207.41;;;16.09;100.00
5484;BME280;2764;48.794;8.326;2022-07-22T04:05:04;100206.53;;;16.08;100.00
5484;BME280;2764;48.794;8.326;2022-07-22T04:06:06;100205.59;;;16.09;100.00
5484;BME280;2764;48.794;8.326;2022-07-22T04:07:08;100199.66;;;16.06;100.00
5484;BME280;2764;48.794;8.326;2022-07-22T04:08:11;100208.16;;;16.11;100.00
5484;BME280;2764;48.794;8.326;2022-07-22T04:09:13;100202.78;;;16.12;100.00
5484;BME280;2764;48.794;8.326;2022-07-22T04:10:15;100204.50;;;16.13;100.00
5484;BME280;2764;48.794;8.326;2022-07-22T04:11:16;100202.63;;;16.15;100.00
5484;BME280;2764;48.794;8.326;2022-07-22T04:12:18;100202.78;;;16.12;100.00
5484;BME280;2764;48.794;8.326;2022-07-22T04:13:20;100205.31;;;16.14;100.00
5484;BME280;2764;48.794;8.326;2022-07-22T04:14:21;100202.69;;;16.14;100.00
5484;BME280;2764;48.794;8.326;2022-07-22T04:15:23;100199.13;;;16.15;100.00
5484;BME280;2764;48.794;8.326;2022-07-22T04:16:26;100204.28;;;16.16;100.00
5484;BME280;2764;48.794;8.326;2022-07-22T04:17:27;100206.09;;;16.16;100.00
5484;BME280;2764;48.794;8.326;2022-07-22T04:18:30;100202.41;;;16.18;100.00
5484;BME280;2764;48.794;8.326;2022-07-22T04:19:32;100205.84;;;16.21;100.00
5484;BME280;2764;48.794;8.326;2022-07-22T04:20:34;100206.66;;;16.21;100.00
5484;BME280;2764;48.794;8.326;2022-07-22T04:21:35;100181.63;;;15.98;100.00
5484;BME280;2764;48.794;8.326;2022-07-22T04:22:37;100203.09;;;16.22;100.00
5484;BME280;2764;48.794;8.326;2022-07-22T04:23:39;100196.09;;;16.21;100.00
5484;BME280;2764;48.794;8.326;2022-07-22T04:24:41;100195.94;;;16.24;100.00
5484;BME280;2764;48.794;8.326;2022-07-22T04:25:42;100199.31;;;16.26;100.00
5484;BME280;2764;48.794;8.326;2022-07-22T04:26:44;100199.16;;;16.29;100.00
5484;BME280;2764;48.794;8.326;2022-07-22T04:27:45;100199.16;;;16.29;100.00
5484;BME280;2764;48.794;8.326;2022-07-22T04:28:47;100200.75;;;16.32;100.00
5484;BME280;2764;48.794;8.326;2022-07-22T04:29:49;100198.97;;;16.32;100.00
5484;BME280;2764;48.794;8.326;2022-07-22T04:30:51;100194.44;;;16.34;100.00
5484;BME280;2764;48.794;8.326;2022-07-22T04:31:52;100196.22;;;16.34;100.00
5484;BME280;2764;48.794;8.326;2022-07-22T04:33:00;100198.78;;;16.35;100.00
5484;BME280;2764;48.794;8.326;2022-07-22T04:34:02;100193.50;;;16.35;100.00
5484;BME280;2764;48.794;8.326;2022-07-22T04:35:04;100192.28;;;16.41;100.00
5484;BME280;2764;48.794;8.326;2022-07-22T04:36:06;100200.09;;;16.42;100.00
5484;BME280;2764;48.794;8.326;2022-07-22T04:37:08;100192.28;;;16.41;100.00
5484;BME280;2764;48.794;8.326;2022-07-22T04:38:10;100197.41;;;16.44;100.00
5484;BME280;2764;48.794;8.326;2022-07-22T04:39:12;100199.94;;;16.45;100.00
5484;BME280;2764;48.794;8.326;2022-07-22T04:40:13;100193.63;;;16.48;100.00
5484;BME280;2764;48.794;8.326;2022-07-22T04:41:15;100190.03;;;16.49;100.00
5484;BME280;2764;48.794;8.326;2022-07-22T04:42:21;100187.31;;;16.50;100.00
5484;BME280;2764;48.794;8.326;2022-07-22T04:43:22;100185.25;;;16.55;100.00
5484;BME280;2764;48.794;8.326;2022-07-22T04:44:24;100190.34;;;16.58;100.00
5484;BME280;2764;48.794;8.326;2022-07-22T04:45:26;100190.16;;;16.61;100.00
5484;BME280;2764;48.794;8.326;2022-07-22T04:46:27;100183.00;;;16.63;100.00
5484;BME280;2764;48.794;8.326;2022-07-22T04:47:29;100184.72;;;16.64;100.00
5484;BME280;2764;48.794;8.326;2022-07-22T04:48:31;100181.09;;;16.65;100.00
5484;BME280;2764;48.794;8.326;2022-07-22T04:49:32;100188.00;;;16.68;100.00
5484;BME280;2764;48.794;8.326;2022-07-22T04:50:36;100186.78;;;16.73;100.00
5484;BME280;2764;48.794;8.326;2022-07-22T04:51:38;100185.81;;;16.74;100.00
5484;BME280;2764;48.794;8.326;2022-07-22T04:52:39;100185.66;;;16.77;100.00
5484;BME280;2764;48.794;8.326;2022-07-22T04:53:49;100191.56;;;16.81;100.00
5484;BME280;2764;48.794;8.326;2022-07-22T04:54:51;100190.47;;;16.85;100.00
5484;BME280;2764;48.794;8.326;2022-07-22T04:55:53;100164.41;;;16.79;100.00
5484;BME280;2764;48.794;8.326;2022-07-22T04:56:55;100189.13;;;16.92;100.00
5484;BME280;2764;48.794;8.326;2022-07-22T04:57:56;100190.63;;;16.96;100.00
5484;BME280;2764;48.794;8.326;2022-07-22T04:58:58;100184.09;;;17.02;100.00
5484;BME280;2764;48.794;8.326;2022-07-22T05:00:00;100180.34;;;17.06;100.00
5484;BME280;2764;48.794;8.326;2022-07-22T05:01:02;100182.78;;;17.09;100.00
5484;BME280;2764;48.794;8.326;2022-07-22T05:02:04;100179.00;;;17.13;100.00
5484;BME280;2764;48.794;8.326;2022-07-22T05:03:05;100173.72;;;17.13;100.00
5484;BME280;2764;48.794;8.326;2022-07-22T05:04:07;100183.91;;;17.19;100.00
5484;BME280;2764;48.794;8.326;2022-07-22T05:05:09;100180.09;;;17.23;100.00
5484;BME280;2764;48.794;8.326;2022-07-22T05:06:11;100180.09;;;17.23;100.00
5484;BME280;2764;48.794;8.326;2022-07-22T05:07:13;100184.16;;;17.28;100.00
5484;BME280;2764;48.794;8.326;2022-07-22T05:08:14;100177.72;;;17.32;100.00
5484;BME280;2764;48.794;8.326;2022-07-22T05:09:16;100173.28;;;17.33;100.00
5484;BME280;2764;48.794;8.326;2022-07-22T05:10:18;100181.47;;;17.42;100.00
5484;BME280;2764;48.794;8.326;2022-07-22T05:11:22;100178.72;;;17.44;100.00
5484;BME280;2764;48.794;8.326;2022-07-22T05:12:23;100182.53;;;17.54;100.00
5484;BME280;2764;48.794;8.326;2022-07-22T05:13:25;100180.41;;;17.59;100.00
5484;BME280;2764;48.794;8.326;2022-07-22T05:14:26;100181.81;;;17.65;100.00
5484;BME280;2764;48.794;8.326;2022-07-22T05:15:28;100188.50;;;17.70;100.00
5484;BME280;2764;48.794;8.326;2022-07-22T05:16:30;100176.56;;;17.77;100.00
5484;BME280;2764;48.794;8.326;2022-07-22T05:17:32;100178.81;;;17.83;100.00
5484;BME280;2764;48.794;8.326;2022-07-22T05:18:34;100181.34;;;17.85;100.00
5484;BME280;2764;48.794;8.326;2022-07-22T05:19:39;100179.91;;;17.93;100.00
5484;BME280;2764;48.794;8.326;2022-07-22T05:20:41;100182.88;;;18.01;100.00
5484;BME280;2764;48.794;8.326;2022-07-22T05:21:43;100180.66;;;18.08;100.00
5484;BME280;2764;48.794;8.326;2022-07-22T05:22:44;100181.06;;;18.14;100.00
5484;BME280;2764;48.794;8.326;2022-07-22T05:23:46;100178.03;;;18.20;100.00
5484;BME280;2764;48.794;8.326;2022-07-22T05:24:48;100179.50;;;18.24;100.00
5484;BME280;2764;48.794;8.326;2022-07-22T05:25:49;100178.34;;;18.29;100.00
5484;BME280;2764;48.794;8.326;2022-07-22T05:26:51;100169.34;;;18.31;100.00
5484;BME280;2764;48.794;8.326;2022-07-22T05:27:54;100168.19;;;18.35;100.00
5484;BME280;2764;48.794;8.326;2022-07-22T05:28:56;100171.47;;;18.39;100.00
5484;BME280;2764;48.794;8.326;2022-07-22T05:29:59;100141.81;;;18.21;100.00